sensor_id;sensor_type;location;lat;lon;timestamp;P1;durP1;ratioP1;P2;durP2;ratioP2
11964;SDS011;6042;41.326;19.826;2023-04-29T00:02:20;8.60;;;3.07;;
11964;SDS011;6042;41.326;19.826;2023-04-29T00:04:48;6.63;;;2.90;;
11964;SDS011;6042;41.326;19.826;2023-04-29T00:07:18;4.87;;;3.03;;
11964;SDS011;6042;41.326;19.826;2023-04-29T00:09:47;16.70;;;3.87;;
11964;SDS011;6042;41.326;19.826;2023-04-29T00:12:16;12.73;;;3.57;;
11964;SDS011;6042;41.326;19.826;2023-04-29T00:14:47;9.97;;;3.17;;
11964;SDS011;6042;41.326;19.826;2023-04-29T00:17:15;5.93;;;3.47;;
11964;SDS011;6042;41.326;19.826;2023-04-29T00:19:45;9.17;;;3.17;;
11964;SDS011;6042;41.326;19.826;2023-04-29T00:22:13;5.43;;;2.73;;
11964;SDS011;6042;41.326;19.826;2023-04-29T00:24:44;8.90;;;3.57;;
11964;SDS011;6042;41.326;19.826;2023-04-29T00:27:12;6.27;;;3.53;;
11964;SDS011;6042;41.326;19.826;2023-04-29T00:29:42;7.60;;;3.43;;
11964;SDS011;6042;41.326;19.826;2023-04-29T00:32:10;6.37;;;3.73;;
11964;SDS011;6042;41.326;19.826;2023-04-29T00:34:39;7.13;;;3.40;;
11964;SDS011;6042;41.326;19.826;2023-04-29T00:37:08;7.17;;;3.93;;
11964;SDS011;6042;41.326;19.826;2023-04-29T00:39:36;6.60;;;3.33;;
11964;SDS011;6042;41.326;19.826;2023-04-29T00:42:06;9.77;;;3.60;;
11964;SDS011;6042;41.326;19.826;2023-04-29T00:44:36;7.63;;;3.63;;
11964;SDS011;6042;41.326;19.826;2023-04-29T00:47:04;6.40;;;3.27;;
11964;SDS011;6042;41.326;19.826;2023-04-29T00:49:37;8.87;;;3.67;;
11964;SDS011;6042;41.326;19.826;2023-04-29T00:52:07;4.37;;;3.47;;
11964;SDS011;6042;41.326;19.826;2023-04-29T00:54:38;11.10;;;3.70;;
11964;SDS011;6042;41.326;19.826;2023-04-29T00:57:08;5.80;;;3.33;;
11964;SDS011;6042;41.326;19.826;2023-04-29T00:59:37;6.23;;;3.40;;
11964;SDS011;6042;41.326;19.826;2023-04-29T01:02:06;5.77;;;3.10;;
11964;SDS011;6042;41.326;19.826;2023-04-29T01:04:35;7.67;;;3.17;;
11964;SDS011;6042;41.326;19.826;2023-04-29T01:07:06;6.47;;;3.10;;
11964;SDS011;6042;41.326;19.826;2023-04-29T01:09:52;7.27;;;3.30;;
11964;SDS011;6042;41.326;19.826;2023-04-29T01:12:32;3.37;;;2.70;;
11964;SDS011;6042;41.326;19.826;2023-04-29T01:15:03;9.60;;;4.20;;
11964;SDS011;6042;41.326;19.826;2023-04-29T01:17:36;9.93;;;5.10;;
11964;SDS011;6042;41.326;19.826;2023-04-29T01:20:08;10.57;;;5.13;;
11964;SDS011;6042;41.326;19.826;2023-04-29T01:22:37;6.27;;;4.57;;
11964;SDS011;6042;41.326;19.826;2023-04-29T01:25:07;7.20;;;4.50;;
11964;SDS011;6042;41.326;19.826;2023-04-29T01:27:56;9.37;;;4.20;;
11964;SDS011;6042;41.326;19.826;2023-04-29T01:30:34;7.37;;;4.30;;
11964;SDS011;6042;41.326;19.826;2023-04-29T01:33:11;7.87;;;3.80;;
11964;SDS011;6042;41.326;19.826;2023-04-29T01:35:49;4.77;;;3.40;;
11964;SDS011;6042;41.326;19.826;2023-04-29T01:38:29;4.97;;;3.17;;
11964;SDS011;6042;41.326;19.826;2023-04-29T01:41:09;5.87;;;3.20;;
11964;SDS011;6042;41.326;19.826;2023-04-29T01:43:40;8.67;;;3.50;;
11964;SDS011;6042;41.326;19.826;2023-04-29T01:46:17;5.43;;;2.93;;
11964;SDS011;6042;41.326;19.826;2023-04-29T01:48:47;7.80;;;3.13;;
11964;SDS011;6042;41.326;19.826;2023-04-29T01:51:18;3.33;;;2.80;;
11964;SDS011;6042;41.326;19.826;2023-04-29T01:53:47;5.80;;;2.77;;
11964;SDS011;6042;41.326;19.826;2023-04-29T01:56:18;3.97;;;2.40;;
11964;SDS011;6042;41.326;19.826;2023-04-29T01:59:07;2.97;;;2.60;;
11964;SDS011;6042;41.326;19.826;2023-04-29T02:01:56;4.07;;;2.87;;
11964;SDS011;6042;41.326;19.826;2023-04-29T02:04:25;2.70;;;2.23;;
11964;SDS011;6042;41.326;19.826;2023-04-29T02:06:55;7.80;;;2.27;;
11964;SDS011;6042;41.326;19.826;2023-04-29T02:09:24;3.07;;;2.53;;
11964;SDS011;6042;41.326;19.826;2023-04-29T02:12:01;2.90;;;2.20;;
11964;SDS011;6042;41.326;19.826;2023-04-29T02:14:30;4.20;;;2.10;;
11964;SDS011;6042;41.326;19.826;2023-04-29T02:17:03;3.83;;;2.40;;
11964;SDS011;6042;41.326;19.826;2023-04-29T02:19:32;5.17;;;2.60;;
11964;SDS011;6042;41.326;19.826;2023-04-29T02:22:01;2.37;;;2.17;;
11964;SDS011;6042;41.326;19.826;2023-04-29T02:24:30;3.37;;;2.13;;
11964;SDS011;6042;41.326;19.826;2023-04-29T02:27:01;3.43;;;2.00;;
11964;SDS011;6042;41.326;19.826;2023-04-29T02:29:31;3.63;;;2.50;;
11964;SDS011;6042;41.326;19.826;2023-04-29T02:31:59;3.90;;;2.20;;
11964;SDS011;6042;41.326;19.826;2023-04-29T02:34:29;5.10;;;2.20;;
11964;SDS011;6042;41.326;19.826;2023-04-29T02:36:59;3.60;;;2.10;;
11964;SDS011;6042;41.326;19.826;2023-04-29T02:39:27;17.70;;;3.60;;
11964;SDS011;6042;41.326;19.826;2023-04-29T02:41:56;3.00;;;2.20;;
11964;SDS011;6042;41.326;19.826;2023-04-29T02:44:28;2.50;;;2.30;;
11964;SDS011;6042;41.326;19.826;2023-04-29T02:46:57;2.53;;;2.00;;
11964;SDS011;6042;41.326;19.826;2023-04-29T02:49:27;4.20;;;2.10;;
11964;SDS011;6042;41.326;19.826;2023-04-29T02:51:55;4.97;;;2.00;;
11964;SDS011;6042;41.326;19.826;2023-04-29T02:54:23;3.87;;;2.03;;
11964;SDS011;6042;41.326;19.826;2023-04-29T02:56:52;2.87;;;2.00;;
11964;SDS011;6042;41.326;19.826;2023-04-29T02:59:20;2.93;;;2.20;;
11964;SDS011;6042;41.326;19.826;2023-04-29T03:01:50;6.13;;;1.70;;
11964;SDS011;6042;41.326;19.826;2023-04-29T03:04:21;3.63;;;1.70;;
11964;SDS011;6042;41.326;19.826;2023-04-29T03:06:50;5.37;;;1.80;;
11964;SDS011;6042;41.326;19.826;2023-04-29T03:09:18;2.83;;;1.70;;
11964;SDS011;6042;41.326;19.826;2023-04-29T03:11:47;4.33;;;2.10;;
11964;SDS011;6042;41.326;19.826;2023-04-29T03:14:16;3.20;;;2.17;;
11964;SDS011;6042;41.326;19.826;2023-04-29T03:16:46;3.43;;;1.90;;
11964;SDS011;6042;41.326;19.826;2023-04-29T03:19:16;3.10;;;1.90;;
11964;SDS011;6042;41.326;19.826;2023-04-29T03:21:44;5.00;;;2.30;;
11964;SDS011;6042;41.326;19.826;2023-04-29T03:24:12;3.97;;;1.63;;
11964;SDS011;6042;41.326;19.826;2023-04-29T03:26:41;2.43;;;1.80;;
11964;SDS011;6042;41.326;19.826;2023-04-29T03:29:09;4.27;;;2.50;;
11964;SDS011;6042;41.326;19.826;2023-04-29T03:31:38;2.30;;;2.10;;
11964;SDS011;6042;41.326;19.826;2023-04-29T03:34:07;2.60;;;1.70;;
11964;SDS011;6042;41.326;19.826;2023-04-29T03:36:41;3.80;;;1.73;;
11964;SDS011;6042;41.326;19.826;2023-04-29T03:39:10;4.37;;;2.00;;
11964;SDS011;6042;41.326;19.826;2023-04-29T03:41:39;3.27;;;1.97;;
11964;SDS011;6042;41.326;19.826;2023-04-29T03:44:07;3.57;;;2.20;;
11964;SDS011;6042;41.326;19.826;2023-04-29T03:46:36;4.93;;;1.87;;
11964;SDS011;6042;41.326;19.826;2023-04-29T03:49:04;4.20;;;2.30;;
11964;SDS011;6042;41.326;19.826;2023-04-29T03:51:33;4.60;;;2.10;;
11964;SDS011;6042;41.326;19.826;2023-04-29T03:54:12;3.37;;;2.00;;
11964;SDS011;6042;41.326;19.826;2023-04-29T03:56:40;2.20;;;1.80;;
11964;SDS011;6042;41.326;19.826;2023-04-29T03:59:09;3.40;;;1.90;;
11964;SDS011;6042;41.326;19.826;2023-04-29T04:01:39;1.93;;;1.80;;
11964;SDS011;6042;41.326;19.826;2023-04-29T04:04:07;2.53;;;2.00;;
11964;SDS011;6042;41.326;19.826;2023-04-29T04:06:40;3.37;;;2.00;;
11964;SDS011;6042;41.326;19.826;2023-04-29T04:09:12;4.00;;;1.90;;
11964;SDS011;6042;41.326;19.826;2023-04-29T04:11:41;4.73;;;2.10;;
11964;SDS011;6042;41.326;19.826;2023-04-29T04:14:10;3.10;;;1.80;;
11964;SDS011;6042;41.326;19.826;2023-04-29T04:16:38;4.57;;;2.20;;
11964;SDS011;6042;41.326;19.826;2023-04-29T04:19:07;3.50;;;2.00;;
11964;SDS011;6042;41.326;19.826;2023-04-29T04:21:39;3.43;;;2.00;;
11964;SDS011;6042;41.326;19.826;2023-04-29T04:24:09;2.33;;;1.83;;
11964;SDS011;6042;41.326;19.826;2023-04-29T04:26:39;2.50;;;1.90;;
11964;SDS011;6042;41.326;19.826;2023-04-29T04:29:19;5.30;;;2.00;;
11964;SDS011;6042;41.326;19.826;2023-04-29T04:31:54;13.47;;;3.10;;
11964;SDS011;6042;41.326;19.826;2023-04-29T04:34:24;4.80;;;2.27;;
11964;SDS011;6042;41.326;19.826;2023-04-29T04:36:55;3.97;;;2.00;;
11964;SDS011;6042;41.326;19.826;2023-04-29T04:39:23;2.13;;;1.60;;
11964;SDS011;6042;41.326;19.826;2023-04-29T04:41:56;3.03;;;1.80;;
11964;SDS011;6042;41.326;19.826;2023-04-29T04:44:28;8.57;;;2.70;;
11964;SDS011;6042;41.326;19.826;2023-04-29T04:47:03;5.73;;;2.40;;
11964;SDS011;6042;41.326;19.826;2023-04-29T04:49:42;5.70;;;2.30;;
11964;SDS011;6042;41.326;19.826;2023-04-29T04:52:11;6.20;;;2.47;;
11964;SDS011;6042;41.326;19.826;2023-04-29T04:54:43;5.03;;;1.93;;
11964;SDS011;6042;41.326;19.826;2023-04-29T04:57:21;14.73;;;3.50;;
11964;SDS011;6042;41.326;19.826;2023-04-29T04:59:49;7.43;;;2.37;;
11964;SDS011;6042;41.326;19.826;2023-04-29T05:02:18;4.37;;;2.00;;
11964;SDS011;6042;41.326;19.826;2023-04-29T05:04:47;7.13;;;2.37;;
11964;SDS011;6042;41.326;19.826;2023-04-29T05:07:17;4.63;;;2.13;;
11964;SDS011;6042;41.326;19.826;2023-04-29T05:10:02;5.97;;;1.90;;
11964;SDS011;6042;41.326;19.826;2023-04-29T05:12:38;3.73;;;2.07;;
11964;SDS011;6042;41.326;19.826;2023-04-29T05:15:07;3.33;;;1.80;;
11964;SDS011;6042;41.326;19.826;2023-04-29T05:17:37;7.30;;;2.27;;
11964;SDS011;6042;41.326;19.826;2023-04-29T05:20:06;7.13;;;2.43;;
11964;SDS011;6042;41.326;19.826;2023-04-29T05:22:35;3.07;;;1.70;;
11964;SDS011;6042;41.326;19.826;2023-04-29T05:25:03;6.57;;;2.43;;
11964;SDS011;6042;41.326;19.826;2023-04-29T05:27:34;4.03;;;1.83;;
11964;SDS011;6042;41.326;19.826;2023-04-29T05:30:08;4.17;;;1.90;;
11964;SDS011;6042;41.326;19.826;2023-04-29T05:32:37;3.37;;;2.20;;
11964;SDS011;6042;41.326;19.826;2023-04-29T05:35:10;5.50;;;2.03;;
11964;SDS011;6042;41.326;19.826;2023-04-29T05:37:38;4.70;;;1.80;;
11964;SDS011;6042;41.326;19.826;2023-04-29T05:40:24;8.63;;;2.33;;
11964;SDS011;6042;41.326;19.826;2023-04-29T05:43:03;9.63;;;2.40;;
11964;SDS011;6042;41.326;19.826;2023-04-29T05:45:33;15.33;;;3.90;;
11964;SDS011;6042;41.326;19.826;2023-04-29T05:48:02;9.27;;;2.77;;
11964;SDS011;6042;41.326;19.826;2023-04-29T05:50:31;4.77;;;2.00;;
11964;SDS011;6042;41.326;19.826;2023-04-29T05:53:01;3.43;;;1.97;;
11964;SDS011;6042;41.326;19.826;2023-04-29T05:55:30;6.37;;;2.43;;
11964;SDS011;6042;41.326;19.826;2023-04-29T05:57:58;7.47;;;2.60;;
11964;SDS011;6042;41.326;19.826;2023-04-29T06:00:27;3.50;;;2.00;;
11964;SDS011;6042;41.326;19.826;2023-04-29T06:03:02;4.87;;;2.10;;
11964;SDS011;6042;41.326;19.826;2023-04-29T06:05:32;14.93;;;4.07;;
11964;SDS011;6042;41.326;19.826;2023-04-29T06:08:08;7.17;;;2.80;;
11964;SDS011;6042;41.326;19.826;2023-04-29T06:11:01;4.90;;;2.13;;
11964;SDS011;6042;41.326;19.826;2023-04-29T06:13:31;5.27;;;2.07;;
11964;SDS011;6042;41.326;19.826;2023-04-29T06:15:59;2.33;;;1.83;;
11964;SDS011;6042;41.326;19.826;2023-04-29T06:18:33;4.23;;;1.90;;
11964;SDS011;6042;41.326;19.826;2023-04-29T06:21:03;17.37;;;4.20;;
11964;SDS011;6042;41.326;19.826;2023-04-29T06:23:31;6.30;;;2.30;;
11964;SDS011;6042;41.326;19.826;2023-04-29T06:26:05;4.50;;;2.07;;
11964;SDS011;6042;41.326;19.826;2023-04-29T06:28:34;3.93;;;1.80;;
11964;SDS011;6042;41.326;19.826;2023-04-29T06:31:02;6.00;;;1.87;;
11964;SDS011;6042;41.326;19.826;2023-04-29T06:33:31;6.03;;;2.17;;
11964;SDS011;6042;41.326;19.826;2023-04-29T06:36:01;2.93;;;2.10;;
11964;SDS011;6042;41.326;19.826;2023-04-29T06:38:50;4.97;;;2.20;;
11964;SDS011;6042;41.326;19.826;2023-04-29T06:41:34;4.60;;;1.90;;
11964;SDS011;6042;41.326;19.826;2023-04-29T06:44:06;5.63;;;2.10;;
11964;SDS011;6042;41.326;19.826;2023-04-29T06:46:34;3.10;;;1.70;;
11964;SDS011;6042;41.326;19.826;2023-04-29T06:49:15;8.20;;;2.33;;
11964;SDS011;6042;41.326;19.826;2023-04-29T06:51:46;3.77;;;1.90;;
11964;SDS011;6042;41.326;19.826;2023-04-29T06:54:14;6.23;;;2.83;;
11964;SDS011;6042;41.326;19.826;2023-04-29T06:56:43;4.20;;;1.80;;
11964;SDS011;6042;41.326;19.826;2023-04-29T06:59:11;6.57;;;1.80;;
11964;SDS011;6042;41.326;19.826;2023-04-29T07:01:40;8.20;;;2.40;;
11964;SDS011;6042;41.326;19.826;2023-04-29T07:04:10;3.63;;;1.60;;
11964;SDS011;6042;41.326;19.826;2023-04-29T07:06:39;5.53;;;2.20;;
11964;SDS011;6042;41.326;19.826;2023-04-29T07:09:17;4.30;;;2.20;;
11964;SDS011;6042;41.326;19.826;2023-04-29T07:11:48;4.63;;;2.23;;
11964;SDS011;6042;41.326;19.826;2023-04-29T07:14:18;4.17;;;2.03;;
11964;SDS011;6042;41.326;19.826;2023-04-29T07:16:51;3.97;;;1.70;;
11964;SDS011;6042;41.326;19.826;2023-04-29T07:19:23;9.53;;;2.27;;
11964;SDS011;6042;41.326;19.826;2023-04-29T07:21:52;4.50;;;1.70;;
11964;SDS011;6042;41.326;19.826;2023-04-29T07:24:22;6.73;;;1.70;;
11964;SDS011;6042;41.326;19.826;2023-04-29T07:26:52;4.20;;;1.80;;
11964;SDS011;6042;41.326;19.826;2023-04-29T07:29:20;4.00;;;1.60;;
11964;SDS011;6042;41.326;19.826;2023-04-29T07:31:49;2.90;;;1.60;;
11964;SDS011;6042;41.326;19.826;2023-04-29T07:34:17;6.03;;;2.10;;
11964;SDS011;6042;41.326;19.826;2023-04-29T07:36:45;3.43;;;1.87;;
11964;SDS011;6042;41.326;19.826;2023-04-29T07:39:14;8.40;;;3.30;;
11964;SDS011;6042;41.326;19.826;2023-04-29T07:41:48;2.33;;;1.70;;
11964;SDS011;6042;41.326;19.826;2023-04-29T07:44:17;5.03;;;2.70;;
11964;SDS011;6042;41.326;19.826;2023-04-29T07:46:46;2.63;;;2.00;;
11964;SDS011;6042;41.326;19.826;2023-04-29T07:49:14;4.07;;;1.80;;
11964;SDS011;6042;41.326;19.826;2023-04-29T07:51:43;3.50;;;1.80;;
11964;SDS011;6042;41.326;19.826;2023-04-29T07:54:11;3.00;;;2.00;;
11964;SDS011;6042;41.326;19.826;2023-04-29T07:56:40;3.93;;;2.00;;
11964;SDS011;6042;41.326;19.826;2023-04-29T07:59:09;1.67;;;1.47;;
11964;SDS011;6042;41.326;19.826;2023-04-29T08:01:39;3.00;;;1.60;;
11964;SDS011;6042;41.326;19.826;2023-04-29T08:04:08;4.37;;;2.40;;
11964;SDS011;6042;41.326;19.826;2023-04-29T08:06:46;2.73;;;1.80;;
11964;SDS011;6042;41.326;19.826;2023-04-29T08:09:14;4.20;;;1.77;;
11964;SDS011;6042;41.326;19.826;2023-04-29T08:11:43;11.20;;;2.23;;
11964;SDS011;6042;41.326;19.826;2023-04-29T08:14:14;6.73;;;1.70;;
11964;SDS011;6042;41.326;19.826;2023-04-29T08:16:43;4.37;;;1.90;;
11964;SDS011;6042;41.326;19.826;2023-04-29T08:19:11;2.13;;;1.43;;
11964;SDS011;6042;41.326;19.826;2023-04-29T08:21:39;3.10;;;1.60;;
11964;SDS011;6042;41.326;19.826;2023-04-29T08:24:08;4.27;;;1.33;;
11964;SDS011;6042;41.326;19.826;2023-04-29T08:26:38;3.73;;;1.47;;
11964;SDS011;6042;41.326;19.826;2023-04-29T08:29:06;4.83;;;1.63;;
11964;SDS011;6042;41.326;19.826;2023-04-29T08:31:36;2.50;;;1.40;;
11964;SDS011;6042;41.326;19.826;2023-04-29T08:34:05;2.50;;;1.80;;
11964;SDS011;6042;41.326;19.826;2023-04-29T08:36:33;3.10;;;1.33;;
11964;SDS011;6042;41.326;19.826;2023-04-29T08:39:04;6.57;;;1.97;;
11964;SDS011;6042;41.326;19.826;2023-04-29T08:41:32;2.80;;;1.67;;
11964;SDS011;6042;41.326;19.826;2023-04-29T08:44:00;4.40;;;1.70;;
11964;SDS011;6042;41.326;19.826;2023-04-29T08:46:29;3.60;;;1.47;;
11964;SDS011;6042;41.326;19.826;2023-04-29T08:49:00;3.37;;;1.70;;
11964;SDS011;6042;41.326;19.826;2023-04-29T08:51:31;2.23;;;1.80;;
11964;SDS011;6042;41.326;19.826;2023-04-29T08:54:00;2.20;;;1.60;;
11964;SDS011;6042;41.326;19.826;2023-04-29T08:56:29;4.53;;;1.70;;
11964;SDS011;6042;41.326;19.826;2023-04-29T08:58:57;2.63;;;1.60;;
11964;SDS011;6042;41.326;19.826;2023-04-29T09:01:28;3.00;;;1.63;;
11964;SDS011;6042;41.326;19.826;2023-04-29T09:04:03;2.97;;;1.73;;
11964;SDS011;6042;41.326;19.826;2023-04-29T09:06:36;3.07;;;1.43;;
11964;SDS011;6042;41.326;19.826;2023-04-29T09:09:05;2.87;;;1.23;;
11964;SDS011;6042;41.326;19.826;2023-04-29T09:11:33;2.80;;;1.43;;
11964;SDS011;6042;41.326;19.826;2023-04-29T09:14:03;4.27;;;1.40;;
11964;SDS011;6042;41.326;19.826;2023-04-29T09:16:31;3.13;;;1.60;;
11964;SDS011;6042;41.326;19.826;2023-04-29T09:19:02;3.23;;;1.20;;
11964;SDS011;6042;41.326;19.826;2023-04-29T09:21:30;3.00;;;1.10;;
11964;SDS011;6042;41.326;19.826;2023-04-29T09:23:59;2.10;;;1.27;;
11964;SDS011;6042;41.326;19.826;2023-04-29T09:26:32;4.90;;;1.10;;
11964;SDS011;6042;41.326;19.826;2023-04-29T09:29:09;2.40;;;1.20;;
11964;SDS011;6042;41.326;19.826;2023-04-29T09:31:39;1.80;;;1.40;;
11964;SDS011;6042;41.326;19.826;2023-04-29T09:34:10;2.07;;;1.20;;
11964;SDS011;6042;41.326;19.826;2023-04-29T09:36:41;2.90;;;2.00;;
11964;SDS011;6042;41.326;19.826;2023-04-29T09:39:12;2.27;;;1.33;;
11964;SDS011;6042;41.326;19.826;2023-04-29T09:41:57;6.13;;;1.60;;
11964;SDS011;6042;41.326;19.826;2023-04-29T09:44:29;2.80;;;1.60;;
11964;SDS011;6042;41.326;19.826;2023-04-29T09:47:00;2.90;;;1.23;;
11964;SDS011;6042;41.326;19.826;2023-04-29T09:49:31;1.60;;;1.10;;
11964;SDS011;6042;41.326;19.826;2023-04-29T09:52:03;3.77;;;1.40;;
11964;SDS011;6042;41.326;19.826;2023-04-29T09:54:33;2.47;;;1.27;;
11964;SDS011;6042;41.326;19.826;2023-04-29T09:57:04;1.87;;;1.10;;
11964;SDS011;6042;41.326;19.826;2023-04-29T09:59:34;2.50;;;1.40;;
11964;SDS011;6042;41.326;19.826;2023-04-29T10:02:06;5.20;;;1.50;;
11964;SDS011;6042;41.326;19.826;2023-04-29T10:04:39;4.87;;;1.60;;
11964;SDS011;6042;41.326;19.826;2023-04-29T10:07:09;3.43;;;1.33;;
11964;SDS011;6042;41.326;19.826;2023-04-29T10:09:43;2.43;;;1.33;;
11964;SDS011;6042;41.326;19.826;2023-04-29T10:12:13;4.87;;;1.60;;
11964;SDS011;6042;41.326;19.826;2023-04-29T10:14:46;3.70;;;1.40;;
11964;SDS011;6042;41.326;19.826;2023-04-29T10:17:18;6.63;;;1.60;;
11964;SDS011;6042;41.326;19.826;2023-04-29T10:19:55;2.67;;;1.70;;
11964;SDS011;6042;41.326;19.826;2023-04-29T10:22:28;2.43;;;1.30;;
11964;SDS011;6042;41.326;19.826;2023-04-29T10:25:02;3.37;;;1.60;;
11964;SDS011;6042;41.326;19.826;2023-04-29T10:27:34;4.93;;;1.57;;
11964;SDS011;6042;41.326;19.826;2023-04-29T10:30:04;2.43;;;1.50;;
11964;SDS011;6042;41.326;19.826;2023-04-29T10:32:36;2.07;;;1.50;;
11964;SDS011;6042;41.326;19.826;2023-04-29T10:35:18;2.50;;;1.87;;
11964;SDS011;6042;41.326;19.826;2023-04-29T10:37:52;6.80;;;2.10;;
11964;SDS011;6042;41.326;19.826;2023-04-29T10:40:21;6.33;;;1.60;;
11964;SDS011;6042;41.326;19.826;2023-04-29T10:42:54;3.23;;;1.60;;
11964;SDS011;6042;41.326;19.826;2023-04-29T10:45:23;5.13;;;1.80;;
11964;SDS011;6042;41.326;19.826;2023-04-29T10:51:01;2.93;;;2.00;;
11964;SDS011;6042;41.326;19.826;2023-04-29T10:53:30;5.20;;;1.93;;
11964;SDS011;6042;41.326;19.826;2023-04-29T10:56:02;5.07;;;1.80;;
11964;SDS011;6042;41.326;19.826;2023-04-29T10:58:33;6.57;;;3.00;;
11964;SDS011;6042;41.326;19.826;2023-04-29T11:01:05;2.33;;;1.73;;
11964;SDS011;6042;41.326;19.826;2023-04-29T11:03:50;4.23;;;2.00;;
11964;SDS011;6042;41.326;19.826;2023-04-29T11:06:37;6.47;;;2.17;;
11964;SDS011;6042;41.326;19.826;2023-04-29T11:09:11;5.10;;;2.20;;
11964;SDS011;6042;41.326;19.826;2023-04-29T11:11:42;1.90;;;1.77;;
11964;SDS011;6042;41.326;19.826;2023-04-29T11:14:11;6.30;;;2.40;;
11964;SDS011;6042;41.326;19.826;2023-04-29T11:16:46;6.07;;;2.30;;
11964;SDS011;6042;41.326;19.826;2023-04-29T11:19:17;2.53;;;2.00;;
11964;SDS011;6042;41.326;19.826;2023-04-29T11:21:47;5.47;;;2.17;;
11964;SDS011;6042;41.326;19.826;2023-04-29T11:24:29;4.60;;;2.33;;
11964;SDS011;6042;41.326;19.826;2023-04-29T11:26:59;3.50;;;2.33;;
11964;SDS011;6042;41.326;19.826;2023-04-29T11:29:29;4.80;;;2.23;;
11964;SDS011;6042;41.326;19.826;2023-04-29T11:31:59;4.67;;;2.77;;
11964;SDS011;6042;41.326;19.826;2023-04-29T11:34:29;4.63;;;2.40;;
11964;SDS011;6042;41.326;19.826;2023-04-29T11:36:58;7.53;;;2.20;;
11964;SDS011;6042;41.326;19.826;2023-04-29T11:39:27;5.10;;;2.40;;
11964;SDS011;6042;41.326;19.826;2023-04-29T11:42:01;4.77;;;1.97;;
11964;SDS011;6042;41.326;19.826;2023-04-29T11:44:32;3.00;;;1.97;;
11964;SDS011;6042;41.326;19.826;2023-04-29T11:47:01;3.17;;;2.10;;
11964;SDS011;6042;41.326;19.826;2023-04-29T11:49:30;6.23;;;2.30;;
11964;SDS011;6042;41.326;19.826;2023-04-29T11:52:00;4.97;;;2.63;;
11964;SDS011;6042;41.326;19.826;2023-04-29T11:54:29;4.57;;;2.47;;
11964;SDS011;6042;41.326;19.826;2023-04-29T11:56:57;8.23;;;2.50;;
11964;SDS011;6042;41.326;19.826;2023-04-29T11:59:31;3.43;;;2.40;;
11964;SDS011;6042;41.326;19.826;2023-04-29T12:01:59;9.80;;;2.80;;
11964;SDS011;6042;41.326;19.826;2023-04-29T12:04:27;4.47;;;2.40;;
11964;SDS011;6042;41.326;19.826;2023-04-29T12:06:56;2.30;;;2.10;;
11964;SDS011;6042;41.326;19.826;2023-04-29T12:09:26;8.97;;;3.03;;
11964;SDS011;6042;41.326;19.826;2023-04-29T12:11:54;5.47;;;2.70;;
11964;SDS011;6042;41.326;19.826;2023-04-29T12:14:23;5.00;;;2.40;;
11964;SDS011;6042;41.326;19.826;2023-04-29T12:16:51;3.93;;;2.40;;
11964;SDS011;6042;41.326;19.826;2023-04-29T12:19:20;10.37;;;3.10;;
11964;SDS011;6042;41.326;19.826;2023-04-29T12:21:49;5.70;;;2.93;;
11964;SDS011;6042;41.326;19.826;2023-04-29T12:24:19;5.60;;;3.10;;
11964;SDS011;6042;41.326;19.826;2023-04-29T12:26:49;8.83;;;3.50;;
11964;SDS011;6042;41.326;19.826;2023-04-29T12:29:19;8.03;;;3.27;;
11964;SDS011;6042;41.326;19.826;2023-04-29T12:31:49;8.50;;;3.27;;
11964;SDS011;6042;41.326;19.826;2023-04-29T12:34:23;5.83;;;3.27;;
11964;SDS011;6042;41.326;19.826;2023-04-29T12:36:53;10.63;;;4.50;;
11964;SDS011;6042;41.326;19.826;2023-04-29T12:39:23;5.07;;;2.97;;
11964;SDS011;6042;41.326;19.826;2023-04-29T12:41:56;5.47;;;3.33;;
11964;SDS011;6042;41.326;19.826;2023-04-29T12:44:25;4.90;;;2.80;;
11964;SDS011;6042;41.326;19.826;2023-04-29T12:47:05;6.93;;;3.30;;
11964;SDS011;6042;41.326;19.826;2023-04-29T12:49:35;6.10;;;3.40;;
11964;SDS011;6042;41.326;19.826;2023-04-29T12:52:04;7.97;;;3.33;;
11964;SDS011;6042;41.326;19.826;2023-04-29T12:54:35;5.53;;;3.07;;
11964;SDS011;6042;41.326;19.826;2023-04-29T12:57:04;4.00;;;2.60;;
11964;SDS011;6042;41.326;19.826;2023-04-29T12:59:33;5.27;;;3.17;;
11964;SDS011;6042;41.326;19.826;2023-04-29T13:02:02;5.10;;;3.40;;
11964;SDS011;6042;41.326;19.826;2023-04-29T13:04:31;5.97;;;3.43;;
11964;SDS011;6042;41.326;19.826;2023-04-29T13:06:59;2.40;;;2.17;;
11964;SDS011;6042;41.326;19.826;2023-04-29T13:09:29;4.00;;;2.70;;
11964;SDS011;6042;41.326;19.826;2023-04-29T13:11:58;4.63;;;2.40;;
11964;SDS011;6042;41.326;19.826;2023-04-29T13:14:29;5.10;;;2.70;;
11964;SDS011;6042;41.326;19.826;2023-04-29T13:16:57;4.73;;;2.93;;
11964;SDS011;6042;41.326;19.826;2023-04-29T13:19:26;6.73;;;2.50;;
11964;SDS011;6042;41.326;19.826;2023-04-29T13:22:15;9.53;;;3.40;;
11964;SDS011;6042;41.326;19.826;2023-04-29T13:24:43;6.33;;;3.07;;
11964;SDS011;6042;41.326;19.826;2023-04-29T13:27:12;5.20;;;3.03;;
11964;SDS011;6042;41.326;19.826;2023-04-29T13:29:42;7.77;;;3.17;;
11964;SDS011;6042;41.326;19.826;2023-04-29T13:32:10;7.33;;;3.53;;
11964;SDS011;6042;41.326;19.826;2023-04-29T13:34:39;9.77;;;3.50;;
11964;SDS011;6042;41.326;19.826;2023-04-29T13:37:09;7.60;;;3.30;;
11964;SDS011;6042;41.326;19.826;2023-04-29T13:39:37;7.53;;;3.50;;
11964;SDS011;6042;41.326;19.826;2023-04-29T13:42:09;7.77;;;2.80;;
11964;SDS011;6042;41.326;19.826;2023-04-29T13:44:42;5.87;;;2.80;;
11964;SDS011;6042;41.326;19.826;2023-04-29T13:47:19;6.57;;;2.93;;
11964;SDS011;6042;41.326;19.826;2023-04-29T13:49:52;6.00;;;2.70;;
11964;SDS011;6042;41.326;19.826;2023-04-29T13:52:24;7.03;;;3.03;;
11964;SDS011;6042;41.326;19.826;2023-04-29T13:55:14;10.13;;;2.70;;
11964;SDS011;6042;41.326;19.826;2023-04-29T13:58:02;6.57;;;2.87;;
11964;SDS011;6042;41.326;19.826;2023-04-29T14:00:35;5.77;;;2.60;;
11964;SDS011;6042;41.326;19.826;2023-04-29T14:03:25;7.90;;;3.47;;
11964;SDS011;6042;41.326;19.826;2023-04-29T14:05:55;7.13;;;3.37;;
11964;SDS011;6042;41.326;19.826;2023-04-29T14:08:24;4.43;;;2.93;;
11964;SDS011;6042;41.326;19.826;2023-04-29T14:10:52;8.03;;;3.10;;
11964;SDS011;6042;41.326;19.826;2023-04-29T14:13:20;12.40;;;3.60;;
11964;SDS011;6042;41.326;19.826;2023-04-29T14:15:50;8.47;;;4.03;;
11964;SDS011;6042;41.326;19.826;2023-04-29T14:18:19;7.87;;;3.30;;
11964;SDS011;6042;41.326;19.826;2023-04-29T14:20:48;6.60;;;3.50;;
11964;SDS011;6042;41.326;19.826;2023-04-29T14:23:16;7.27;;;3.90;;
11964;SDS011;6042;41.326;19.826;2023-04-29T14:25:44;8.80;;;3.80;;
11964;SDS011;6042;41.326;19.826;2023-04-29T14:28:13;8.33;;;3.77;;
11964;SDS011;6042;41.326;19.826;2023-04-29T14:30:41;7.27;;;4.30;;
11964;SDS011;6042;41.326;19.826;2023-04-29T14:33:13;11.80;;;4.23;;
11964;SDS011;6042;41.326;19.826;2023-04-29T14:35:42;9.73;;;4.60;;
11964;SDS011;6042;41.326;19.826;2023-04-29T14:38:10;13.60;;;4.83;;
11964;SDS011;6042;41.326;19.826;2023-04-29T14:40:39;10.57;;;6.83;;
11964;SDS011;6042;41.326;19.826;2023-04-29T14:43:07;6.97;;;4.43;;
11964;SDS011;6042;41.326;19.826;2023-04-29T14:45:35;9.80;;;5.43;;
11964;SDS011;6042;41.326;19.826;2023-04-29T14:48:04;10.50;;;5.23;;
11964;SDS011;6042;41.326;19.826;2023-04-29T14:50:34;7.20;;;4.50;;
11964;SDS011;6042;41.326;19.826;2023-04-29T14:53:03;11.47;;;4.97;;
11964;SDS011;6042;41.326;19.826;2023-04-29T14:55:32;6.90;;;4.83;;
11964;SDS011;6042;41.326;19.826;2023-04-29T14:58:01;7.50;;;4.20;;
11964;SDS011;6042;41.326;19.826;2023-04-29T15:00:30;9.73;;;4.30;;
11964;SDS011;6042;41.326;19.826;2023-04-29T15:02:58;7.30;;;4.37;;
11964;SDS011;6042;41.326;19.826;2023-04-29T15:05:29;7.63;;;4.37;;
11964;SDS011;6042;41.326;19.826;2023-04-29T15:07:59;10.83;;;4.10;;
11964;SDS011;6042;41.326;19.826;2023-04-29T15:10:28;5.60;;;4.43;;
11964;SDS011;6042;41.326;19.826;2023-04-29T15:12:57;6.43;;;4.27;;
11964;SDS011;6042;41.326;19.826;2023-04-29T15:15:26;7.30;;;4.80;;